Time;durP1;ratioP1;P1;durP2;ratioP2;P2;SDS_P1;SDS_P2;PMS_P1;PMS_P2;Temp;Humidity;BMP_temperature;BMP_pressure;BME280_temperature;BME280_humidity;BME280_pressure;Samples;Min_cycle;Max_cycle;Signal;HPM_P1;HPM_P2
2022/12/05 00:01:39;;;;;;;4.17;1.27;;;;;;;-3.64;51.08;102732.68;1808075;78;21022;-61
2022/12/05 00:04:11;;;;;;;3.70;1.27;;;;;;;-3.65;51.17;102728.36;1758295;79;21039;-61
2022/12/05 00:06:39;;;;;;;4.35;1.40;;;;;;;-3.65;51.21;102724.50;1735979;82;21085;-61
2022/12/05 00:09:06;;;;;;;6.85;1.52;;;;;;;-3.67;51.24;102727.05;1811386;77;21054;-60
2022/12/05 00:11:37;;;;;;;4.53;1.50;;;;;;;-3.70;51.31;102723.13;1811416;78;21120;-60
2022/12/05 00:14:04;;;;;;;4.85;2.17;;;;;;;-3.74;51.40;102724.80;1811794;78;21070;-61
2022/12/05 00:16:32;;;;;;;5.53;1.85;;;;;;;-3.72;51.51;102728.69;1817221;78;21028;-60
2022/12/05 00:19:00;;;;;;;7.03;1.30;;;;;;;-3.72;51.39;102731.69;1817824;78;21024;-60
2022/12/05 00:21:30;;;;;;;8.35;1.42;;;;;;;-3.72;51.39;102731.69;1808486;78;21463;-61
2022/12/05 00:23:57;;;;;;;4.75;1.67;;;;;;;-3.72;51.53;102734.26;1808441;77;21078;-60
2022/12/05 00:26:24;;;;;;;5.33;1.67;;;;;;;-3.75;51.66;102724.77;1817255;78;21042;-60
2022/12/05 00:28:50;;;;;;;5.97;1.02;;;;;;;-3.75;51.66;102724.77;1801288;78;21078;-61
2022/12/05 00:31:20;;;;;;;6.22;1.75;;;;;;;-3.74;51.58;102722.22;1816528;78;21241;-60
2022/12/05 00:33:47;;;;;;;5.85;1.55;;;;;;;-3.73;51.54;102716.67;1809918;78;21050;-61
2022/12/05 00:36:20;;;;;;;4.78;1.45;;;;;;;-3.73;51.45;102714.11;1808981;78;21089;-61
2022/12/05 00:38:47;;;;;;;5.05;1.40;;;;;;;-3.72;51.29;102715.81;1812694;78;21169;-61
2022/12/05 00:41:18;;;;;;;5.35;1.32;;;;;;;-3.76;51.21;102721.77;1816252;78;21069;-61
2022/12/05 00:43:44;;;;;;;8.50;1.98;;;;;;;-3.76;51.21;102721.77;1815728;78;21995;-60
2022/12/05 00:46:20;;;;;;;11.50;1.85;;;;;;;-3.75;51.27;102726.05;1818330;78;21491;-60
2022/12/05 00:48:47;;;;;;;4.60;1.37;;;;;;;-3.75;51.43;102720.51;1815841;78;21057;-61
2022/12/05 00:51:17;;;;;;;4.22;1.40;;;;;;;-3.78;51.26;102721.73;1808611;77;21030;-60
2022/12/05 00:53:44;;;;;;;11.40;2.60;;;;;;;-3.79;51.43;102721.70;1809568;78;21530;-60
2022/12/05 00:56:17;;;;;;;4.92;1.67;;;;;;;-3.83;51.32;102717.33;1815876;77;21274;-60
2022/12/05 00:58:44;;;;;;;4.65;1.32;;;;;;;-3.83;51.32;102717.33;1732074;80;21033;-61
2022/12/05 01:01:20;;;;;;;5.95;1.92;;;;;;;-3.86;51.37;102704.45;1818494;78;21089;-60
2022/12/05 01:03:47;;;;;;;5.08;1.15;;;;;;;-3.88;51.37;102704.41;1818714;78;21129;-60
2022/12/05 01:06:14;;;;;;;4.80;1.47;;;;;;;-3.89;51.41;102704.38;1809674;78;21080;-61
2022/12/05 01:08:41;;;;;;;7.12;1.82;;;;;;;-3.95;51.51;102707.30;1811874;78;21640;-60
2022/12/05 01:11:09;;;;;;;4.47;1.30;;;;;;;-3.95;51.53;102701.27;1748223;82;20998;-60
2022/12/05 01:13:35;;;;;;;4.47;0.98;;;;;;;-3.96;51.65;102695.27;1818501;78;21515;-60
2022/12/05 01:16:02;;;;;;;4.28;1.52;;;;;;;-3.95;51.71;102691.87;1819286;78;21547;-61
2022/12/05 01:18:29;;;;;;;7.80;2.17;;;;;;;-3.95;51.69;102690.98;1817599;78;21061;-60
2022/12/05 01:20:55;;;;;;;8.33;1.70;;;;;;;-3.94;51.57;102688.44;1816632;78;21238;-61
2022/12/05 01:23:22;;;;;;;3.37;1.05;;;;;;;-3.95;51.65;102685.84;1802890;78;21050;-61
2022/12/05 01:25:50;;;;;;;4.97;1.60;;;;;;;-3.98;51.63;102678.95;1809483;77;21430;-61
2022/12/05 01:28:16;;;;;;;5.35;1.60;;;;;;;-4.00;51.67;102672.92;1818493;78;20994;-61
2022/12/05 01:30:46;;;;;;;5.20;1.37;;;;;;;-4.03;51.88;102667.72;1816819;78;21047;-61
2022/12/05 01:33:13;;;;;;;5.28;1.27;;;;;;;-4.05;51.82;102665.95;1812373;78;21136;-60
2022/12/05 01:35:40;;;;;;;8.40;2.40;;;;;;;-4.07;51.86;102662.06;1745347;80;21546;-60
2022/12/05 01:38:07;;;;;;;6.62;1.90;;;;;;;-4.08;52.07;102659.45;1815357;78;21026;-60
2022/12/05 01:40:34;;;;;;;5.10;1.40;;;;;;;-4.08;52.06;102657.78;1814454;78;21073;-61
2022/12/05 01:43:02;;;;;;;4.30;1.27;;;;;;;-4.06;52.10;102652.23;1748545;82;21053;-60
2022/12/05 01:45:36;;;;;;;7.78;2.65;;;;;;;-4.05;52.11;102651.80;1817295;78;21233;-61
2022/12/05 01:48:07;;;;;;;7.10;2.65;;;;;;;-4.08;52.12;102649.17;1814342;78;21101;-60
2022/12/05 01:50:34;;;;;;;6.72;1.80;;;;;;;-4.09;52.22;102647.03;1814950;78;21033;-60
2022/12/05 01:53:01;;;;;;;5.90;1.37;;;;;;;-4.11;52.20;102644.43;1800961;78;21021;-60
2022/12/05 01:55:27;;;;;;;3.52;1.02;;;;;;;-4.13;52.26;102647.41;1802167;77;21030;-60
2022/12/05 02:00:47;;;;;;;4.90;1.60;;;;;;;-4.18;52.60;102644.31;1792418;78;22754;-60
2022/12/05 02:03:18;;;;;;;5.75;1.57;;;;;;;-4.15;52.45;102647.80;1764754;80;21661;-60
2022/12/05 02:05:47;;;;;;;3.77;1.25;;;;;;;-4.15;52.48;102643.09;1767731;80;21646;-60
2022/12/05 02:08:14;;;;;;;5.50;2.55;;;;;;;-4.17;52.59;102634.45;1756351;81;21046;-60
2022/12/05 02:10:46;;;;;;;6.60;2.40;;;;;;;-4.19;52.56;102638.72;1760152;80;21630;-60
2022/12/05 02:13:50;;;;;;;6.00;1.45;;;;;;;-4.18;52.71;102640.46;1724455;81;21591;-59
2022/12/05 02:16:48;;;;;;;9.38;1.40;;;;;;;-4.19;52.71;102638.72;1721989;82;21137;-60
2022/12/05 02:19:30;;;;;;;3.95;1.20;;;;;;;-4.20;52.74;102642.11;1723652;82;21157;-60
2022/12/05 02:22:38;;;;;;;4.17;1.10;;;;;;;-4.22;52.73;102640.83;1718888;82;21014;-60
2022/12/05 02:25:40;;;;;;;5.20;1.50;;;;;;;-4.23;52.87;102639.52;1730194;82;21066;-60
2022/12/05 02:28:45;;;;;;;3.20;0.95;;;;;;;-4.25;52.94;102647.59;1714176;82;21105;-60
2022/12/05 02:31:35;;;;;;;4.37;1.07;;;;;;;-4.29;53.22;102647.97;1726419;82;21140;-60
2022/12/05 02:34:33;;;;;;;5.45;1.10;;;;;;;-4.29;53.22;102647.97;1714838;82;21171;-61
2022/12/05 02:37:29;;;;;;;3.37;1.25;;;;;;;-4.31;53.20;102647.94;1714059;82;21047;-58
2022/12/05 02:40:01;;;;;;;4.60;1.77;;;;;;;-4.36;53.16;102644.42;1736466;81;21053;-61
2022/12/05 02:42:46;;;;;;;6.55;2.02;;;;;;;-4.39;53.23;102652.06;1735712;81;21141;-61
2022/12/05 02:45:14;;;;;;;5.40;1.62;;;;;;;-4.40;53.35;102650.36;1735580;81;21864;-58
2022/12/05 02:47:49;;;;;;;2.92;1.10;;;;;;;-4.39;53.43;102649.50;1717739;81;21288;-58
2022/12/05 02:50:20;;;;;;;5.75;1.80;;;;;;;-4.41;53.41;102656.31;1709042;82;21595;-59
2022/12/05 02:52:47;;;;;;;5.35;1.60;;;;;;;-4.43;53.44;102652.86;1711503;82;21284;-59
2022/12/05 02:55:15;;;;;;;7.80;2.15;;;;;;;-4.43;53.44;102652.86;1713679;82;21094;-58
2022/12/05 02:57:44;;;;;;;5.62;2.35;;;;;;;-4.43;53.68;102654.14;1714652;82;21088;-58
2022/12/05 03:00:17;;;;;;;5.72;2.08;;;;;;;-4.36;53.61;102663.70;1716152;82;21149;-58
2022/12/05 03:02:47;;;;;;;7.80;1.98;;;;;;;-4.32;53.62;102656.91;1704919;83;21093;-59
2022/12/05 03:05:22;;;;;;;3.72;1.72;;;;;;;-4.28;53.48;102660.42;1681034;83;21134;-59
2022/12/05 03:07:51;;;;;;;7.85;1.42;;;;;;;-4.29;53.32;102659.53;1705946;82;21016;-60
2022/12/05 03:10:20;;;;;;;5.53;1.75;;;;;;;-4.34;53.38;102657.30;1751385;81;21039;-60
2022/12/05 03:12:52;;;;;;;4.12;1.12;;;;;;;-4.34;53.38;102657.30;1752345;81;22039;-60
2022/12/05 03:15:23;;;;;;;9.38;2.17;;;;;;;-4.35;53.44;102654.30;1754497;81;21180;-60
2022/12/05 03:18:05;;;;;;;5.78;1.70;;;;;;;-4.38;53.55;102651.24;1747315;81;21092;-60
2022/12/05 03:20:47;;;;;;;5.75;1.27;;;;;;;-4.38;53.55;102651.24;1750154;81;21009;-60
2022/12/05 03:23:24;;;;;;;5.75;1.92;;;;;;;-4.39;53.61;102655.92;1749275;81;21149;-60
2022/12/05 03:26:10;;;;;;;6.17;2.17;;;;;;;-4.38;53.65;102656.38;1743393;81;21271;-60
2022/12/05 03:28:44;;;;;;;7.15;1.85;;;;;;;-4.36;53.61;102661.55;1730180;81;21011;-60
2022/12/05 03:31:13;;;;;;;8.33;2.12;;;;;;;-4.36;53.61;102661.55;1756443;81;21110;-60
2022/12/05 03:33:44;;;;;;;5.80;1.70;;;;;;;-4.36;53.55;102664.13;1745432;80;21465;-60
2022/12/05 03:36:15;;;;;;;4.97;1.40;;;;;;;-4.36;53.64;102660.27;1750637;81;21048;-60
2022/12/05 03:38:55;;;;;;;5.22;1.47;;;;;;;-4.38;53.53;102656.38;1748063;81;21203;-60
2022/12/05 03:41:53;;;;;;;6.70;2.87;;;;;;;-4.40;53.65;102656.78;1753707;81;21114;-60
2022/12/05 03:44:30;;;;;;;11.15;1.72;;;;;;;-4.38;53.79;102656.38;1751548;81;21117;-60
2022/12/05 03:47:17;;;;;;;5.00;1.42;;;;;;;-4.38;53.76;102654.24;1743716;81;21077;-60
2022/12/05 03:49:47;;;;;;;5.42;1.45;;;;;;;-4.38;53.85;102646.10;1740865;82;21047;-61
2022/12/05 03:52:27;;;;;;;5.05;2.27;;;;;;;-4.38;53.76;102639.67;1747014;81;21244;-61
2022/12/05 03:54:56;;;;;;;6.03;2.12;;;;;;;-4.36;53.77;102643.13;1755917;80;21067;-61
2022/12/05 03:57:50;;;;;;;4.35;1.42;;;;;;;-4.36;53.73;102639.28;1754221;81;21626;-60
2022/12/05 04:00:19;;;;;;;8.25;1.42;;;;;;;-4.38;53.73;102638.39;1758311;80;21079;-61
2022/12/05 04:02:56;;;;;;;13.95;2.55;;;;;;;-4.41;54.16;102638.76;1754438;80;21074;-61
2022/12/05 04:05:29;;;;;;;3.33;0.90;;;;;;;-4.41;54.16;102638.76;1746203;80;21160;-60
2022/12/05 04:08:03;;;;;;;6.47;1.50;;;;;;;-4.41;54.00;102645.19;1750519;80;21032;-61
2022/12/05 04:10:47;;;;;;;4.50;1.57;;;;;;;-4.42;53.90;102645.61;1692805;84;21422;-61
2022/12/05 04:13:16;;;;;;;6.05;1.20;;;;;;;-4.47;53.86;102651.09;1754064;79;21148;-61
2022/12/05 04:17:02;;;;;;;5.45;1.87;;;;;;;-4.55;54.04;102654.78;1748585;80;21034;-61
2022/12/05 04:17:59;;;;;;;3.70;1.37;;;;;;;-4.55;54.04;102654.78;1743164;80;21375;-61
2022/12/05 04:25:31;;;;;;;3.27;0.95;;;;;;;-4.58;54.21;102643.59;1761842;79;21998;-60
2022/12/05 04:26:23;;;;;;;5.95;1.55;;;;;;;-4.58;54.29;102638.02;1772610;79;21089;-60
2022/12/05 04:28:55;;;;;;;4.47;1.50;;;;;;;-4.56;54.41;102641.47;1774283;80;21081;-60
2022/12/05 04:31:25;;;;;;;4.28;1.20;;;;;;;-4.53;54.34;102635.55;1766728;79;21102;-60
2022/12/05 04:33:55;;;;;;;5.35;1.80;;;;;;;-4.55;54.36;102629.09;1745485;82;21066;-60
2022/12/05 04:36:35;;;;;;;6.35;1.37;;;;;;;-4.56;54.35;102631.20;1788389;79;21034;-61
2022/12/05 04:39:11;;;;;;;8.23;1.75;;;;;;;-4.56;54.42;102632.48;1727790;81;21054;-60
2022/12/05 04:41:45;;;;;;;4.90;1.50;;;;;;;-4.54;54.50;102626.98;1691978;83;21069;-60
2022/12/05 04:44:15;;;;;;;4.50;1.47;;;;;;;-4.52;54.67;102627.86;1718197;82;21089;-60
2022/12/05 04:46:43;;;;;;;6.80;2.00;;;;;;;-4.51;54.68;102620.58;1699956;82;21047;-60
2022/12/05 04:49:19;;;;;;;6.50;2.20;;;;;;;-4.46;54.71;102616.82;1759647;79;21031;-61
2022/12/05 04:51:46;;;;;;;6.15;2.25;;;;;;;-4.41;55.05;102621.62;1758926;81;21096;-60
2022/12/05 04:54:18;;;;;;;4.22;1.15;;;;;;;-4.41;55.05;102621.62;1745515;80;21034;-60
2022/12/05 04:56:44;;;;;;;4.05;1.45;;;;;;;-4.35;54.68;102623.45;1761739;79;21613;-60
2022/12/05 04:59:11;;;;;;;3.83;1.52;;;;;;;-4.29;54.79;102622.26;1762354;79;21477;-60
2022/12/05 05:01:52;;;;;;;6.83;2.05;;;;;;;-4.21;54.74;102626.27;1765503;79;21578;-60
2022/12/05 05:04:23;;;;;;;6.20;2.67;;;;;;;-4.12;54.48;102621.26;1758399;79;21054;-60
2022/12/05 05:06:51;;;;;;;5.58;2.22;;;;;;;-4.12;54.48;102621.26;1773569;79;21090;-60
2022/12/05 05:09:17;;;;;;;6.47;1.72;;;;;;;-4.08;54.47;102619.20;1764116;79;21852;-59
2022/12/05 05:11:44;;;;;;;4.78;1.40;;;;;;;-4.05;54.49;102618.37;1758353;80;21449;-60
2022/12/05 05:14:10;;;;;;;5.37;1.07;;;;;;;-4.01;54.47;102620.17;1757326;79;21545;-59
2022/12/05 05:16:39;;;;;;;4.62;1.22;;;;;;;-3.94;54.42;102619.42;1757885;79;21688;-60
2022/12/05 05:19:07;;;;;;;6.47;1.67;;;;;;;-3.90;54.34;102616.47;1770962;79;21051;-60
2022/12/05 05:21:36;;;;;;;4.45;1.47;;;;;;;-3.94;54.33;102612.99;1780386;79;21519;-60
2022/12/05 05:24:03;;;;;;;8.45;1.70;;;;;;;-3.96;54.37;102608.25;1792908;79;21075;-60
2022/12/05 05:26:32;;;;;;;7.83;2.65;;;;;;;-3.93;54.35;102613.45;1784802;79;21002;-60
2022/12/05 05:28:58;;;;;;;7.25;2.12;;;;;;;-3.99;54.80;102605.63;1797514;79;21054;-60
2022/12/05 05:31:25;;;;;;;7.78;2.52;;;;;;;-3.99;54.80;102605.63;1766384;80;21069;-60
2022/12/05 05:33:54;;;;;;;4.58;2.22;;;;;;;-3.94;54.63;102607.41;1772417;79;21245;-60
2022/12/05 05:36:23;;;;;;;5.53;1.92;;;;;;;-3.93;54.71;102607.88;1758340;80;21049;-60
2022/12/05 05:38:55;;;;;;;4.78;1.40;;;;;;;-3.86;54.72;102607.98;1771742;79;21062;-60
2022/12/05 05:41:29;;;;;;;5.47;1.75;;;;;;;-3.82;54.71;102614.89;1765418;79;21579;-60
2022/12/05 05:43:55;;;;;;;7.62;2.25;;;;;;;-3.80;54.94;102622.20;1780776;79;21488;-60
2022/12/05 05:48:47;;;;;;;3.83;1.10;;;;;;;-3.85;55.23;102629.87;1851148;75;22534;-63
2022/12/05 05:51:14;;;;;;;6.22;2.08;;;;;;;-3.70;54.78;102620.64;1820557;77;20953;-64
2022/12/05 05:53:41;;;;;;;5.35;1.52;;;;;;;-3.66;54.64;102620.72;1820494;78;21244;-63
2022/12/05 05:56:13;;;;;;;6.75;2.25;;;;;;;-3.63;54.49;102622.06;1813869;78;21021;-64
2022/12/05 05:58:39;;;;;;;6.25;2.20;;;;;;;-3.59;54.60;102633.26;1819600;78;20959;-64
2022/12/05 06:01:12;;;;;;;3.33;1.12;;;;;;;-3.59;54.60;102633.26;1822129;77;20992;-64
2022/12/05 06:03:39;;;;;;;6.20;2.20;;;;;;;-3.56;54.69;102634.59;1817668;78;22242;-64
2022/12/05 06:06:08;;;;;;;5.17;2.00;;;;;;;-3.55;54.56;102633.33;1817012;78;21594;-64
2022/12/05 06:08:38;;;;;;;6.37;2.17;;;;;;;-3.50;54.56;102644.10;1820323;77;20963;-64
2022/12/05 06:11:11;;;;;;;3.60;1.05;;;;;;;-3.49;54.42;102631.69;1813793;77;21011;-65
2022/12/05 06:13:38;;;;;;;6.08;1.50;;;;;;;-3.47;54.19;102634.71;1818413;77;21201;-64
2022/12/05 06:16:09;;;;;;;4.42;1.22;;;;;;;-3.47;54.16;102645.44;1815088;77;21038;-64
2022/12/05 06:18:35;;;;;;;3.75;0.98;;;;;;;-3.48;54.17;102644.58;1815568;78;21978;-65
2022/12/05 06:21:04;;;;;;;6.75;2.02;;;;;;;-3.48;54.26;102653.99;1820745;78;21007;-64
2022/12/05 06:23:32;;;;;;;4.90;1.37;;;;;;;-3.49;54.38;102647.13;1820631;78;21046;-64
2022/12/05 06:25:58;;;;;;;5.17;1.70;;;;;;;-3.47;54.38;102647.58;1821845;78;21030;-63
2022/12/05 06:28:25;;;;;;;5.10;1.45;;;;;;;-3.48;54.40;102630.83;1811672;78;21118;-64
2022/12/05 06:30:52;;;;;;;11.20;3.12;;;;;;;-3.48;54.40;102630.83;1821290;78;21249;-63
2022/12/05 06:33:18;;;;;;;5.75;1.60;;;;;;;-3.43;54.49;102635.22;1822871;77;20951;-63
2022/12/05 06:35:45;;;;;;;6.03;1.55;;;;;;;-3.42;54.36;102632.21;1811647;77;21425;-63
2022/12/05 06:38:11;;;;;;;7.83;2.10;;;;;;;-3.42;54.36;102632.21;1807801;77;20952;-63
2022/12/05 06:40:41;;;;;;;6.20;2.27;;;;;;;-3.29;54.20;102632.83;1814970;77;21010;-63
2022/12/05 06:43:09;;;;;;;6.03;2.12;;;;;;;-3.29;54.20;102632.83;1822582;77;21187;-63
2022/12/05 06:45:38;;;;;;;5.83;2.90;;;;;;;-3.25;54.28;102633.73;1823577;77;20951;-63
2022/12/05 06:48:05;;;;;;;5.25;1.72;;;;;;;-3.25;54.18;102633.30;1808451;78;21097;-64
2022/12/05 06:50:32;;;;;;;8.13;2.27;;;;;;;-3.28;54.17;102628.53;1801385;79;21019;-64
2022/12/05 06:52:58;;;;;;;4.80;1.15;;;;;;;-3.27;54.28;102631.13;1808823;79;21441;-64
2022/12/05 06:55:27;;;;;;;8.13;2.12;;;;;;;-3.24;54.31;102627.31;1800574;77;21079;-64
2022/12/05 06:57:53;;;;;;;5.80;1.92;;;;;;;-3.22;54.28;102629.91;1802401;77;20896;-63
2022/12/05 07:03:05;;;;;;;4.30;1.30;;;;;;;-3.16;54.33;102628.72;1802108;77;21007;-64
2022/12/05 07:05:32;;;;;;;4.97;1.20;;;;;;;-3.14;54.71;102623.55;1819579;77;21025;-64
2022/12/05 07:07:59;;;;;;;7.92;2.75;;;;;;;-3.14;54.71;102623.55;1826945;77;21201;-64
2022/12/05 07:10:25;;;;;;;4.60;1.90;;;;;;;-3.11;54.65;102628.35;1810561;77;21451;-64
2022/12/05 07:12:53;;;;;;;5.85;2.15;;;;;;;-3.05;54.40;102630.13;1805222;78;20984;-64
2022/12/05 07:15:21;;;;;;;5.65;1.95;;;;;;;-3.03;54.50;102629.72;1803057;77;21042;-63
2022/12/05 07:17:47;;;;;;;7.17;2.22;;;;;;;-3.08;54.36;102638.66;1790682;79;21085;-64
2022/12/05 07:20:16;;;;;;;6.72;2.20;;;;;;;-3.06;54.55;102633.14;1792855;77;21236;-64
2022/12/05 07:22:42;;;;;;;4.78;1.55;;;;;;;-2.93;54.32;102635.85;1808658;77;21073;-64
2022/12/05 07:25:09;;;;;;;8.38;1.75;;;;;;;-2.92;54.19;102634.59;1810043;77;22167;-63
2022/12/05 07:27:35;;;;;;;5.58;1.60;;;;;;;-2.92;54.19;102634.59;1808886;79;21003;-64
2022/12/05 07:30:04;;;;;;;5.92;1.80;;;;;;;-3.00;54.04;102646.50;1807911;79;21554;-63
2022/12/05 07:32:32;;;;;;;5.90;2.50;;;;;;;-3.00;54.04;102646.50;1810604;77;21114;-62
2022/12/05 07:34:59;;;;;;;7.03;2.00;;;;;;;-2.98;54.69;102647.37;1811381;79;21559;-62
2022/12/05 07:37:25;;;;;;;4.67;1.37;;;;;;;-2.98;54.69;102647.37;1804000;77;21100;-63
2022/12/05 07:39:52;;;;;;;10.25;3.87;;;;;;;-3.00;54.66;102645.22;1810289;77;21019;-64
2022/12/05 07:42:19;;;;;;;8.95;2.25;;;;;;;-2.95;55.06;102634.98;1805652;77;21046;-64
2022/12/05 07:44:45;;;;;;;3.58;1.52;;;;;;;-2.95;55.06;102634.98;1813605;78;21106;-64
2022/12/05 07:47:12;;;;;;;7.17;2.87;;;;;;;-2.96;54.90;102631.95;1791499;77;21078;-63
2022/12/05 07:49:38;;;;;;;5.75;2.27;;;;;;;-2.99;54.92;102628.49;1810564;77;21026;-63
2022/12/05 07:52:05;;;;;;;7.22;2.22;;;;;;;-2.99;54.74;102616.05;1806919;77;21093;-63
2022/12/05 07:54:33;;;;;;;4.30;1.62;;;;;;;-2.99;54.74;102616.05;1805620;78;21035;-64
2022/12/05 07:57:00;;;;;;;6.78;2.25;;;;;;;-2.87;55.04;102611.47;1801374;77;21195;-64
2022/12/05 07:59:26;;;;;;;7.42;1.72;;;;;;;-2.87;55.04;102611.47;1802103;77;21014;-65
2022/12/05 08:01:53;;;;;;;8.80;3.08;;;;;;;-2.86;55.13;102615.34;1806230;77;20971;-64
2022/12/05 08:04:19;;;;;;;4.80;1.72;;;;;;;-2.86;55.17;102614.06;1799255;79;21022;-64
2022/12/05 08:06:47;;;;;;;8.75;2.40;;;;;;;-2.81;55.32;102616.27;1821889;77;21523;-64
2022/12/05 08:09:13;;;;;;;15.55;2.85;;;;;;;-2.73;55.44;102612.90;1807785;77;22067;-65
2022/12/05 08:11:40;;;;;;;6.00;1.62;;;;;;;-2.73;55.44;102612.90;1809911;77;21034;-64
2022/12/05 08:14:08;;;;;;;6.70;2.45;;;;;;;-2.68;55.55;102606.08;1810306;79;21054;-65
2022/12/05 08:16:35;;;;;;;5.45;1.95;;;;;;;-2.63;55.51;102609.56;1790149;78;21738;-64
2022/12/05 08:19:05;;;;;;;5.20;1.85;;;;;;;-2.64;55.58;102602.67;1801387;77;21496;-64
2022/12/05 08:21:32;;;;;;;11.53;2.37;;;;;;;-2.64;55.75;102606.53;1800707;77;21049;-64
2022/12/05 08:23:58;;;;;;;6.95;1.65;;;;;;;-2.57;55.89;102609.64;1804863;77;20986;-63
2022/12/05 08:26:29;;;;;;;5.53;2.15;;;;;;;-2.52;55.59;102598.95;1811315;77;21030;-65
2022/12/05 08:29:02;;;;;;;5.05;1.60;;;;;;;-2.52;55.59;102598.95;1809613;77;21534;-64
2022/12/05 08:31:30;;;;;;;7.40;2.10;;;;;;;-2.49;55.89;102592.55;1810394;77;21513;-64
2022/12/05 08:33:57;;;;;;;4.65;1.62;;;;;;;-2.44;55.83;102590.88;1799867;77;21191;-64
2022/12/05 08:36:24;;;;;;;5.83;1.72;;;;;;;-2.37;55.71;102589.22;1802081;77;21012;-65
2022/12/05 08:38:56;;;;;;;5.53;1.82;;;;;;;-2.31;55.65;102588.39;1803179;77;21084;-65
2022/12/05 08:41:27;;;;;;;6.72;2.42;;;;;;;-2.22;55.59;102596.20;1799119;77;21008;-64
2022/12/05 08:43:51;;;;;;;6.08;2.02;;;;;;;-2.22;55.59;102596.20;1808615;77;21027;-65
2022/12/05 08:46:17;;;;;;;7.30;2.12;;;;;;;-2.21;55.50;102590.63;1730158;79;21257;-64
2022/12/05 08:48:44;;;;;;;4.50;1.60;;;;;;;-2.20;55.90;102582.02;1791125;78;20988;-65
2022/12/05 08:51:11;;;;;;;7.33;2.12;;;;;;;-2.20;55.57;102583.31;1811847;77;21567;-65
2022/12/05 08:53:38;;;;;;;6.08;1.65;;;;;;;-2.13;55.78;102576.94;1805054;78;21015;-65
2022/12/05 08:56:07;;;;;;;5.58;2.30;;;;;;;-2.13;55.78;102576.94;1804961;77;20983;-65
2022/12/05 08:58:34;;;;;;;7.90;2.95;;;;;;;-2.15;55.64;102565.75;1798317;77;21181;-65
2022/12/05 09:01:10;;;;;;;6.35;1.72;;;;;;;-2.06;55.58;102571.41;1799023;79;20996;-65
2022/12/05 09:03:38;;;;;;;5.37;2.65;;;;;;;-2.06;55.58;102571.41;1781570;80;21062;-65
2022/12/05 09:06:08;;;;;;;6.97;2.12;;;;;;;-1.94;55.66;102563.74;1807337;77;21090;-65
2022/12/05 09:08:35;;;;;;;5.67;1.87;;;;;;;-1.81;55.04;102554.81;1809745;79;21050;-65
2022/12/05 09:11:20;;;;;;;6.83;2.70;;;;;;;-1.81;55.04;102554.81;1801341;79;21141;-65
2022/12/05 09:13:47;;;;;;;6.60;2.10;;;;;;;-1.79;55.41;102560.41;1809922;77;21027;-65
2022/12/05 09:16:17;;;;;;;7.00;2.22;;;;;;;-1.75;55.17;102558.30;1794866;77;21089;-65
2022/12/05 09:18:44;;;;;;;6.03;2.05;;;;;;;-1.67;54.84;102551.87;1807397;77;21042;-64
2022/12/05 09:21:20;;;;;;;5.80;2.33;;;;;;;-1.73;55.00;102544.97;1802462;77;21085;-64
2022/12/05 09:23:47;;;;;;;7.58;2.83;;;;;;;-1.78;55.16;102537.63;1799800;77;21120;-65
2022/12/05 09:26:16;;;;;;;7.78;2.40;;;;;;;-1.80;55.19;102537.16;1827085;77;21089;-65
2022/12/05 09:28:43;;;;;;;7.60;2.98;;;;;;;-1.82;54.95;102540.17;1800403;79;21515;-65
2022/12/05 09:31:15;;;;;;;7.58;2.87;;;;;;;-1.88;54.90;102536.70;1815080;77;21374;-64
2022/12/05 09:33:42;;;;;;;7.53;2.05;;;;;;;-1.91;54.85;102534.53;1788063;79;21117;-64
2022/12/05 09:36:18;;;;;;;7.47;3.22;;;;;;;-1.92;55.13;102533.64;1812987;77;21215;-66
2022/12/05 09:38:44;;;;;;;11.00;3.08;;;;;;;-1.88;55.04;102530.69;1801390;78;21527;-65
2022/12/05 09:42:08;;;;;;;8.33;2.22;;;;;;;-1.87;55.09;102529.81;1807249;77;21528;-64
2022/12/05 09:44:46;;;;;;;6.47;2.40;;;;;;;-1.85;55.11;102529.83;1807096;79;22282;-64
2022/12/05 09:47:42;;;;;;;6.62;2.65;;;;;;;-1.86;55.00;102516.06;1799262;77;21011;-64
2022/12/05 09:50:22;;;;;;;6.60;2.40;;;;;;;-1.83;55.01;102520.37;1752374;78;21153;-64
2022/12/05 09:53:06;;;;;;;7.75;2.55;;;;;;;-1.79;54.94;102521.69;1774059;79;21024;-64
2022/12/05 09:55:42;;;;;;;5.62;2.27;;;;;;;-1.79;55.05;102519.11;1782536;78;21046;-64
2022/12/05 09:58:22;;;;;;;6.85;2.65;;;;;;;-1.80;55.03;102518.70;1778259;80;21021;-65
2022/12/05 10:00:56;;;;;;;6.87;2.45;;;;;;;-1.82;55.10;102516.50;1755084;79;21093;-65
2022/12/05 10:05:52;;;;;;;5.97;2.40;;;;;;;-1.84;55.46;102512.20;1795774;78;23408;-64
2022/12/05 10:08:27;;;;;;;7.45;1.92;;;;;;;-1.78;55.22;102513.52;1717731;81;21161;-65
2022/12/05 10:11:04;;;;;;;6.70;3.00;;;;;;;-1.73;55.23;102512.70;1704216;83;21160;-65
2022/12/05 10:13:51;;;;;;;6.17;1.98;;;;;;;-1.67;54.85;102511.01;1708268;82;21030;-65
2022/12/05 10:16:23;;;;;;;8.40;2.37;;;;;;;-1.67;55.08;102511.01;1717243;81;21724;-64
2022/12/05 10:18:54;;;;;;;8.95;3.50;;;;;;;-1.67;55.13;102505.41;1706774;83;21062;-66
2022/12/05 10:21:33;;;;;;;8.63;2.37;;;;;;;-1.65;55.01;102504.98;1733325;81;20927;-66
2022/12/05 10:24:03;;;;;;;4.95;1.82;;;;;;;-1.64;54.86;102497.69;1706165;83;21909;-63
2022/12/05 10:26:36;;;;;;;9.68;2.67;;;;;;;-1.65;54.69;102506.27;1712658;81;21019;-63
2022/12/05 10:29:29;;;;;;;7.50;2.40;;;;;;;-1.63;54.68;102508.86;1709879;81;21051;-65
2022/12/05 10:32:04;;;;;;;6.45;2.87;;;;;;;-1.62;54.66;102497.69;1700012;83;21340;-65
2022/12/05 10:34:35;;;;;;;5.87;2.55;;;;;;;-1.61;54.69;102504.59;1735472;81;21055;-65
2022/12/05 10:37:15;;;;;;;6.08;2.33;;;;;;;-1.53;54.58;102506.34;1726790;81;22163;-64
2022/12/05 10:39:42;;;;;;;7.37;2.70;;;;;;;-1.52;54.56;102499.02;1711451;83;21014;-63
2022/12/05 10:42:19;;;;;;;8.25;2.77;;;;;;;-1.52;54.73;102496.44;1718456;81;21111;-64
2022/12/05 10:44:45;;;;;;;7.05;2.83;;;;;;;-1.44;54.59;102497.77;1717894;83;21125;-65
2022/12/05 10:47:12;;;;;;;7.53;3.37;;;;;;;-1.42;54.43;102496.05;1721696;81;21137;-65
2022/12/05 10:49:38;;;;;;;6.60;2.77;;;;;;;-1.42;54.33;102493.47;1713188;81;21154;-64
2022/12/05 10:52:05;;;;;;;7.53;2.50;;;;;;;-1.42;54.22;102487.01;1701588;83;21095;-63
2022/12/05 10:54:38;;;;;;;9.18;3.02;;;;;;;-1.43;54.23;102481.44;1702832;83;21058;-63
2022/12/05 10:57:29;;;;;;;9.10;2.92;;;;;;;-1.47;54.18;102479.67;1712502;82;21047;-63
2022/12/05 10:59:55;;;;;;;8.15;2.47;;;;;;;-1.44;54.42;102478.84;1686504;83;21540;-63
2022/12/05 11:02:30;;;;;;;6.42;2.47;;;;;;;-1.41;54.32;102474.55;1710669;83;22384;-63
2022/12/05 11:04:58;;;;;;;;;;;;;;;-1.42;54.33;102480.55;1698642;83;21057;-64
2022/12/05 11:07:32;;;;;;;8.35;3.00;;;;;;;-1.40;54.44;102472.81;1684619;83;20202;-64
2022/12/05 11:10:00;;;;;;;6.12;2.22;;;;;;;-1.35;54.34;102473.25;1677085;85;21107;-62
2022/12/05 11:12:40;;;;;;;8.30;3.27;;;;;;;-1.34;54.39;102468.53;1685073;85;21021;-64
2022/12/05 11:15:21;;;;;;;9.15;3.22;;;;;;;-1.31;54.31;102459.50;1684527;84;21198;-63
2022/12/05 11:17:48;;;;;;;8.40;2.77;;;;;;;-1.27;54.35;102459.52;1682423;85;21086;-64
2022/12/05 11:20:23;;;;;;;5.90;2.98;;;;;;;-1.26;54.20;102463.80;1684249;85;21075;-64
2022/12/05 11:22:52;;;;;;;8.68;3.17;;;;;;;-1.27;54.26;102453.06;1679802;85;21070;-64
2022/12/05 11:25:27;;;;;;;8.93;2.90;;;;;;;-1.28;54.36;102457.78;1684495;84;21101;-65
2022/12/05 11:27:54;;;;;;;11.57;3.55;;;;;;;-1.29;54.50;102456.05;1680994;85;21513;-64
2022/12/05 11:30:24;;;;;;;7.78;2.33;;;;;;;-1.29;54.43;102453.46;1678801;85;21059;-66
2022/12/05 11:32:50;;;;;;;9.25;2.55;;;;;;;-1.34;54.45;102444.00;1660689;83;21021;-66
2022/12/05 11:35:23;;;;;;;9.53;3.72;;;;;;;-1.35;54.54;102434.95;1681228;83;21525;-66
2022/12/05 11:37:57;;;;;;;7.72;2.72;;;;;;;-1.29;54.63;102435.38;1652470;85;21084;-66
2022/12/05 11:40:53;;;;;;;9.35;3.00;;;;;;;-1.28;54.44;102438.41;1678426;83;21161;-66
2022/12/05 11:44:11;;;;;;;8.03;2.83;;;;;;;-1.34;54.36;102431.52;1684350;83;21052;-66
2022/12/05 11:47:09;;;;;;;6.20;2.12;;;;;;;-1.32;54.50;102428.06;1659392;85;21052;-66
2022/12/05 11:49:43;;;;;;;6.72;2.30;;;;;;;-1.35;54.24;102420.30;1665541;85;21068;-66
2022/12/05 11:52:32;;;;;;;9.45;2.83;;;;;;;-1.43;54.22;102410.41;1684607;85;21648;-66
2022/12/05 11:55:22;;;;;;;8.25;3.98;;;;;;;-1.45;54.24;102417.27;1675977;83;21151;-65
2022/12/05 11:57:57;;;;;;;7.37;2.58;;;;;;;-1.45;54.41;102404.80;1683212;84;21076;-66
2022/12/05 12:00:38;;;;;;;8.95;3.45;;;;;;;-1.43;54.52;102403.96;1702876;82;21117;-65